Time;durP1;ratioP1;P1;durP2;ratioP2;P2;SDS_P1;SDS_P2;PMS_P1;PMS_P2;Temp;Humidity;BMP_temperature;BMP_pressure;BME280_temperature;BME280_humidity;BME280_pressure;Samples;Min_cycle;Max_cycle;Signal;HPM_P1;HPM_P2
2023/10/02 00:03:12;;;;;;;6.75;6.03;;;;;;;;;;10060324;28;20415;-71
2023/10/02 00:08:04;;;;;;;13.00;6.18;;;;;;;;;;10061394;28;20045;-68
2023/10/02 00:12:59;;;;;;;8.95;8.10;;;;;;;;;;10060288;28;20088;-70
2023/10/02 00:17:51;;;;;;;9.38;8.32;;;;;;;;;;10060743;28;20120;-70
2023/10/02 00:22:43;;;;;;;9.70;7.68;;;;;;;;;;10060272;28;20446;-69
2023/10/02 00:27:38;;;;;;;9.63;7.30;;;;;;;;;;10061283;28;20069;-71
2023/10/02 00:32:31;;;;;;;8.88;7.60;;;;;;;;;;10059124;28;20111;-70
2023/10/02 00:37:43;;;;;;;7.60;6.45;;;;;;;;;;10058769;28;20075;-71
2023/10/02 00:42:36;;;;;;;6.97;6.35;;;;;;;;;;10059288;28;20080;-71
2023/10/02 00:47:45;;;;;;;7.95;6.95;;;;;;;;;;10060622;28;20613;-70
2023/10/02 00:52:43;;;;;;;6.88;6.20;;;;;;;;;;10059966;28;20084;-70
2023/10/02 00:57:38;;;;;;;9.32;6.45;;;;;;;;;;10065672;28;20041;-71
2023/10/02 01:02:30;;;;;;;7.75;7.00;;;;;;;;;;10066766;28;20053;-70
2023/10/02 01:07:22;;;;;;;9.07;6.53;;;;;;;;;;10066947;28;20065;-70
2023/10/02 01:12:17;;;;;;;7.50;6.32;;;;;;;;;;10066115;28;20041;-71
2023/10/02 01:17:12;;;;;;;7.95;6.72;;;;;;;;;;10065437;28;20115;-70
2023/10/02 01:22:04;;;;;;;7.72;6.47;;;;;;;;;;10049160;28;20077;-70
2023/10/02 01:26:57;;;;;;;6.85;5.72;;;;;;;;;;10053663;28;20048;-71
2023/10/02 01:31:52;;;;;;;10.48;6.00;;;;;;;;;;10068676;28;20076;-70
2023/10/02 01:36:44;;;;;;;7.03;6.25;;;;;;;;;;10068048;28;20041;-70
2023/10/02 01:41:37;;;;;;;9.23;6.20;;;;;;;;;;10069547;28;20043;-70
2023/10/02 01:46:30;;;;;;;7.35;5.95;;;;;;;;;;10069045;28;20455;-70
2023/10/02 01:51:26;;;;;;;7.85;6.43;;;;;;;;;;10069053;28;20451;-71
2023/10/02 01:56:20;;;;;;;7.13;6.38;;;;;;;;;;10068081;28;20045;-70
2023/10/02 02:01:12;;;;;;;7.85;6.90;;;;;;;;;;10066955;28;20119;-69
2023/10/02 02:06:11;;;;;;;9.52;6.72;;;;;;;;;;10066918;28;20060;-71
2023/10/02 02:11:24;;;;;;;6.82;6.13;;;;;;;;;;10067846;28;20046;-71
2023/10/02 02:16:22;;;;;;;7.93;5.97;;;;;;;;;;10066856;28;20045;-70
2023/10/02 02:21:24;;;;;;;6.43;5.47;;;;;;;;;;10067404;28;20113;-71
2023/10/02 02:26:27;;;;;;;6.90;5.80;;;;;;;;;;10067231;28;20037;-71
2023/10/02 02:31:31;;;;;;;13.10;6.28;;;;;;;;;;10068457;28;20391;-70
2023/10/02 02:36:25;;;;;;;7.28;6.57;;;;;;;;;;10066964;28;20060;-70
2023/10/02 02:41:18;;;;;;;6.75;6.05;;;;;;;;;;10066576;28;20494;-70
2023/10/02 02:46:17;;;;;;;7.32;6.18;;;;;;;;;;10066516;28;20061;-70
2023/10/02 02:51:18;;;;;;;9.55;6.97;;;;;;;;;;10065977;28;20041;-71
2023/10/02 02:56:22;;;;;;;7.38;6.22;;;;;;;;;;10066724;28;20049;-71
2023/10/02 03:01:21;;;;;;;9.25;6.03;;;;;;;;;;10041070;28;20062;-70
2023/10/02 03:06:21;;;;;;;16.00;6.53;;;;;;;;;;10065636;28;20092;-70
2023/10/02 03:11:22;;;;;;;6.82;6.13;;;;;;;;;;10066009;28;20037;-70
2023/10/02 03:16:18;;;;;;;9.98;6.18;;;;;;;;;;10065685;28;20037;-69
2023/10/02 03:21:23;;;;;;;7.68;6.85;;;;;;;;;;10065922;28;20406;-70
2023/10/02 03:26:37;;;;;;;12.38;6.57;;;;;;;;;;10065466;28;20092;-70
2023/10/02 03:31:51;;;;;;;9.75;7.30;;;;;;;;;;10065668;28;20080;-69
2023/10/02 03:36:47;;;;;;;9.77;6.40;;;;;;;;;;10065059;28;20057;-69
2023/10/02 03:41:48;;;;;;;9.75;6.97;;;;;;;;;;10063523;28;20080;-70
2023/10/02 03:46:41;;;;;;;9.52;6.75;;;;;;;;;;10057723;28;20056;-69
2023/10/02 03:51:36;;;;;;;10.75;6.85;;;;;;;;;;10062217;28;20451;-69
2023/10/02 03:56:42;;;;;;;9.80;7.18;;;;;;;;;;10051651;28;20144;-69
2023/10/02 04:01:34;;;;;;;9.85;6.88;;;;;;;;;;10058907;28;20052;-70
2023/10/02 04:06:33;;;;;;;8.60;6.90;;;;;;;;;;10052725;28;20486;-69
2023/10/02 04:11:26;;;;;;;9.10;6.75;;;;;;;;;;10058992;28;20052;-70
2023/10/02 04:16:30;;;;;;;7.40;6.72;;;;;;;;;;10060386;28;20081;-69
2023/10/02 04:21:22;;;;;;;8.65;7.32;;;;;;;;;;10060467;28;20084;-70
2023/10/02 04:26:19;;;;;;;8.45;7.47;;;;;;;;;;10065679;28;20353;-70
2023/10/02 04:31:20;;;;;;;8.45;7.18;;;;;;;;;;10066056;28;20052;-69
2023/10/02 04:36:13;;;;;;;8.07;7.30;;;;;;;;;;10066271;28;20049;-67
2023/10/02 04:41:20;;;;;;;8.82;7.30;;;;;;;;;;10067400;28;20124;-69
2023/10/02 04:46:14;;;;;;;8.50;7.60;;;;;;;;;;10049666;28;20049;-68
2023/10/02 04:51:11;;;;;;;8.10;7.30;;;;;;;;;;10065935;28;20048;-69
2023/10/02 04:56:21;;;;;;;8.52;6.93;;;;;;;;;;10067105;28;20138;-70
2023/10/02 05:01:28;;;;;;;8.85;7.70;;;;;;;;;;10061469;28;20049;-69
2023/10/02 05:11:50;;;;;;;9.52;8.02;;;;;;;;;;10048683;28;20487;-68
2023/10/02 05:16:46;;;;;;;10.90;8.10;;;;;;;;;;10048086;28;20116;-68
2023/10/02 05:21:50;;;;;;;14.18;10.05;;;;;;;;;;10064047;28;20046;-67
2023/10/02 05:26:44;;;;;;;8.90;8.07;;;;;;;;;;10058805;28;20064;-69
2023/10/02 05:31:40;;;;;;;11.23;8.38;;;;;;;;;;10059206;28;20468;-71
2023/10/02 05:36:35;;;;;;;10.32;8.77;;;;;;;;;;10065024;28;20387;-70
2023/10/02 05:41:38;;;;;;;12.27;8.82;;;;;;;;;;10068690;28;20440;-70
2023/10/02 05:46:54;;;;;;;12.95;9.80;;;;;;;;;;10068048;28;20054;-70
2023/10/02 05:51:47;;;;;;;11.38;9.88;;;;;;;;;;10068325;28;20053;-70
2023/10/02 05:56:40;;;;;;;23.27;11.10;;;;;;;;;;10066303;28;20370;-67
2023/10/02 06:01:35;;;;;;;11.98;10.68;;;;;;;;;;10065360;28;20114;-70
2023/10/02 06:06:28;;;;;;;10.02;8.98;;;;;;;;;;10057821;28;20049;-67
2023/10/02 06:11:31;;;;;;;13.45;10.32;;;;;;;;;;10068140;28;20037;-70
2023/10/02 06:16:33;;;;;;;16.77;11.77;;;;;;;;;;10067171;28;20132;-70
2023/10/02 06:21:25;;;;;;;16.52;11.00;;;;;;;;;;10065432;28;20053;-70
2023/10/02 06:26:17;;;;;;;10.85;9.70;;;;;;;;;;10062252;28;20057;-69
2023/10/02 06:31:08;;;;;;;15.98;10.90;;;;;;;;;;10065975;28;20085;-71
2023/10/02 06:36:05;;;;;;;20.45;12.65;;;;;;;;;;10067582;28;20073;-69
2023/10/02 06:40:59;;;;;;;18.45;12.70;;;;;;;;;;10067513;28;20655;-71
2023/10/02 06:46:06;;;;;;;16.15;12.50;;;;;;;;;;10065646;28;20103;-68
2023/10/02 06:50:59;;;;;;;13.60;12.25;;;;;;;;;;10066355;28;20057;-68
2023/10/02 06:55:58;;;;;;;19.58;13.85;;;;;;;;;;10064443;28;20071;-70
2023/10/02 07:01:02;;;;;;;21.92;11.77;;;;;;;;;;10064630;28;20042;-69
2023/10/02 07:05:53;;;;;;;12.27;10.93;;;;;;;;;;10064133;28;20049;-70
2023/10/02 07:10:47;;;;;;;12.60;11.20;;;;;;;;;;10063911;28;20060;-69
2023/10/02 07:15:41;;;;;;;19.55;14.52;;;;;;;;;;10059812;28;20057;-71
2023/10/02 07:20:42;;;;;;;14.13;12.68;;;;;;;;;;10060973;28;20099;-70
2023/10/02 07:25:35;;;;;;;23.83;15.30;;;;;;;;;;10061222;28;20083;-70
2023/10/02 07:30:27;;;;;;;21.02;14.93;;;;;;;;;;10063434;28;20045;-69
2023/10/02 07:35:23;;;;;;;24.65;17.08;;;;;;;;;;10061324;28;20045;-70
2023/10/02 07:40:15;;;;;;;24.05;16.77;;;;;;;;;;10062052;28;20099;-69
2023/10/02 07:50:35;;;;;;;13.68;10.32;;;;;;;;;;10056975;28;20049;-71
2023/10/02 07:55:28;;;;;;;16.40;10.10;;;;;;;;;;10062015;28;20124;-70
2023/10/02 08:00:37;;;;;;;11.60;9.85;;;;;;;;;;10062058;28;20072;-69
2023/10/02 08:05:34;;;;;;;13.77;7.90;;;;;;;;;;10060917;28;20263;-72
2023/10/02 08:10:47;;;;;;;9.43;8.52;;;;;;;;;;10060398;28;20065;-71
2023/10/02 08:15:40;;;;;;;11.40;10.10;;;;;;;;;;10059580;28;20383;-71
2023/10/02 08:20:36;;;;;;;14.13;9.80;;;;;;;;;;10061068;28;20099;-71
2023/10/02 08:25:33;;;;;;;11.57;10.38;;;;;;;;;;10061978;28;20095;-70
2023/10/02 08:30:32;;;;;;;15.10;11.65;;;;;;;;;;10059340;28;20133;-71
2023/10/02 08:35:24;;;;;;;11.50;10.13;;;;;;;;;;10058573;28;20053;-72
2023/10/02 08:40:17;;;;;;;17.95;12.15;;;;;;;;;;10063564;28;20037;-70
2023/10/02 08:45:18;;;;;;;15.20;10.40;;;;;;;;;;10058707;28;20057;-71
2023/10/02 08:50:10;;;;;;;16.92;12.48;;;;;;;;;;10057464;28;20459;-71
2023/10/02 08:55:33;;;;;;;19.60;15.20;;;;;;;;;;10059575;28;20044;-71
2023/10/02 09:00:27;;;;;;;14.48;13.07;;;;;;;;;;10060121;28;20439;-70
2023/10/02 09:05:19;;;;;;;15.63;12.18;;;;;;;;;;10061185;28;20491;-72
2023/10/02 09:10:25;;;;;;;16.00;12.05;;;;;;;;;;10058543;28;20044;-71
2023/10/02 09:15:29;;;;;;;15.60;12.48;;;;;;;;;;10068008;28;20383;-71
2023/10/02 09:20:38;;;;;;;15.80;11.20;;;;;;;;;;10064764;28;20041;-71
2023/10/02 09:25:37;;;;;;;12.15;9.52;;;;;;;;;;10059999;28;20053;-71
2023/10/02 09:35:40;;;;;;;11.93;8.90;;;;;;;;;;10067729;28;20435;-72
2023/10/02 09:41:35;;;;;;;9.98;8.35;;;;;;;;;;10061545;28;20148;-72
2023/10/02 09:46:21;;;;;;;11.55;7.68;;;;;;;;;;10062296;28;20453;-71
2023/10/02 09:51:22;;;;;;;15.27;10.85;;;;;;;;;;10065708;28;20084;-71
2023/10/02 09:56:16;;;;;;;12.52;8.88;;;;;;;;;;10065281;28;20041;-71
2023/10/02 10:06:24;;;;;;;14.15;9.82;;;;;;;;;;10064936;28;20049;-71
2023/10/02 10:11:18;;;;;;;11.43;9.40;;;;;;;;;;10066284;28;20060;-71
2023/10/02 10:16:19;;;;;;;21.55;9.23;;;;;;;;;;10061033;28;20051;-71
2023/10/02 10:21:55;;;;;;;10.98;9.30;;;;;;;;;;10064653;28;20468;-71
2023/10/02 10:26:49;;;;;;;9.25;8.27;;;;;;;;;;10057993;28;20076;-67
2023/10/02 10:31:55;;;;;;;10.50;8.35;;;;;;;;;;10061481;28;20178;-68
2023/10/02 10:36:48;;;;;;;11.00;10.00;;;;;;;;;;10060824;28;20430;-68
2023/10/02 10:41:53;;;;;;;12.95;8.93;;;;;;;;;;10061401;28;20380;-68
2023/10/02 10:46:47;;;;;;;14.70;8.73;;;;;;;;;;10062773;28;20468;-67
2023/10/02 10:51:40;;;;;;;12.85;9.25;;;;;;;;;;10064395;28;20376;-67
2023/10/02 10:56:32;;;;;;;13.27;9.20;;;;;;;;;;10066554;28;20048;-68
2023/10/02 11:01:24;;;;;;;14.60;9.50;;;;;;;;;;10063034;28;20054;-68
2023/10/02 11:06:17;;;;;;;17.67;11.98;;;;;;;;;;10063340;28;20059;-68
2023/10/02 11:11:11;;;;;;;13.45;12.05;;;;;;;;;;10061723;28;20042;-68
2023/10/02 11:16:10;;;;;;;13.38;9.88;;;;;;;;;;10063412;28;20037;-68
2023/10/02 11:21:01;;;;;;;12.67;10.87;;;;;;;;;;10054740;28;20156;-67
2023/10/02 11:25:55;;;;;;;27.30;18.15;;;;;;;;;;10064025;28;20049;-68
2023/10/02 11:31:00;;;;;;;20.15;17.15;;;;;;;;;;10053644;28;20050;-67
2023/10/02 11:35:56;;;;;;;18.52;16.60;;;;;;;;;;10060674;28;20486;-67
2023/10/02 11:40:48;;;;;;;22.42;15.68;;;;;;;;;;10061988;28;20422;-67
2023/10/02 11:45:40;;;;;;;19.90;15.40;;;;;;;;;;10062501;28;20057;-68
2023/10/02 11:50:32;;;;;;;21.85;16.33;;;;;;;;;;10062323;28;20049;-68
2023/10/02 11:55:24;;;;;;;23.13;16.50;;;;;;;;;;10060507;28;20491;-68
2023/10/02 12:00:20;;;;;;;23.17;16.55;;;;;;;;;;10063729;28;20127;-68
2023/10/02 12:05:13;;;;;;;22.17;15.57;;;;;;;;;;10060150;28;20104;-69
2023/10/02 12:10:06;;;;;;;17.48;12.15;;;;;;;;;;10061095;28;20116;-68
2023/10/02 12:14:57;;;;;;;16.27;14.43;;;;;;;;;;10061017;28;20375;-68
2023/10/02 12:19:51;;;;;;;19.05;16.13;;;;;;;;;;10061096;28;20081;-68
2023/10/02 12:24:46;;;;;;;15.05;13.45;;;;;;;;;;10060916;28;20516;-68
2023/10/02 12:29:39;;;;;;;22.00;16.85;;;;;;;;;;10061095;28;20486;-71
2023/10/02 12:34:31;;;;;;;14.75;12.98;;;;;;;;;;10061820;28;20049;-69
2023/10/02 12:39:26;;;;;;;21.17;13.68;;;;;;;;;;10061826;28;20045;-69
2023/10/02 12:44:18;;;;;;;17.70;15.90;;;;;;;;;;10061175;28;20459;-69
2023/10/02 12:49:13;;;;;;;16.80;14.98;;;;;;;;;;10070636;28;20041;-69
2023/10/02 12:54:05;;;;;;;20.27;14.00;;;;;;;;;;10066263;28;20037;-70
2023/10/02 12:58:57;;;;;;;13.88;12.30;;;;;;;;;;10068830;28;20128;-68
2023/10/02 13:03:48;;;;;;;19.13;13.55;;;;;;;;;;10068034;28;20050;-67
2023/10/02 13:08:44;;;;;;;15.77;14.07;;;;;;;;;;10070379;28;20041;-69
2023/10/02 13:13:36;;;;;;;10.73;9.32;;;;;;;;;;10065753;28;20475;-69
2023/10/02 13:18:28;;;;;;;13.52;9.13;;;;;;;;;;10069948;28;20410;-69
2023/10/02 13:23:20;;;;;;;16.65;8.43;;;;;;;;;;10066924;28;20638;-70
2023/10/02 13:28:12;;;;;;;11.07;9.70;;;;;;;;;;10067864;28;20045;-70
2023/10/02 13:33:04;;;;;;;17.10;7.85;;;;;;;;;;10066679;28;20053;-70
2023/10/02 13:37:56;;;;;;;13.00;7.90;;;;;;;;;;10067673;28;20052;-70
2023/10/02 13:42:49;;;;;;;11.75;6.82;;;;;;;;;;10064601;28;20080;-69
2023/10/02 13:47:41;;;;;;;9.90;7.07;;;;;;;;;;10067487;28;20158;-71
2023/10/02 13:52:33;;;;;;;11.68;7.07;;;;;;;;;;10065873;28;20554;-70
2023/10/02 13:57:25;;;;;;;7.18;6.35;;;;;;;;;;10066224;28;20049;-69
2023/10/02 14:02:17;;;;;;;15.95;8.65;;;;;;;;;;10065181;28;20057;-71
2023/10/02 14:07:09;;;;;;;11.15;7.32;;;;;;;;;;10066191;28;20055;-70
2023/10/02 14:12:02;;;;;;;13.32;7.28;;;;;;;;;;10065154;28;20076;-70
2023/10/02 14:16:54;;;;;;;9.38;7.63;;;;;;;;;;10063524;28;20053;-67
2023/10/02 14:21:46;;;;;;;11.93;8.65;;;;;;;;;;10065414;28;20041;-68
2023/10/02 14:26:39;;;;;;;14.25;9.88;;;;;;;;;;10065919;28;20633;-69
2023/10/02 14:31:31;;;;;;;14.18;9.95;;;;;;;;;;10065001;28;20041;-69
2023/10/02 14:36:25;;;;;;;12.25;11.02;;;;;;;;;;10064736;28;20049;-69
2023/10/02 14:41:17;;;;;;;18.02;9.68;;;;;;;;;;10063028;28;20049;-69
2023/10/02 14:46:09;;;;;;;11.52;9.00;;;;;;;;;;10064812;28;20077;-68
2023/10/02 14:51:01;;;;;;;10.00;8.50;;;;;;;;;;10063551;28;20049;-69
2023/10/02 14:55:53;;;;;;;12.63;10.07;;;;;;;;;;10064645;28;20424;-69
2023/10/02 15:00:45;;;;;;;16.90;9.30;;;;;;;;;;10064051;28;20068;-68
2023/10/02 15:05:37;;;;;;;12.00;9.07;;;;;;;;;;10063976;28;20522;-69
2023/10/02 15:10:32;;;;;;;13.73;8.45;;;;;;;;;;10063441;28;20095;-69
2023/10/02 15:15:28;;;;;;;13.75;8.68;;;;;;;;;;10058077;28;20143;-69
2023/10/02 15:20:23;;;;;;;10.52;7.07;;;;;;;;;;10054031;28;20045;-68
2023/10/02 15:25:16;;;;;;;11.68;8.15;;;;;;;;;;10051359;28;20107;-67
2023/10/02 15:30:10;;;;;;;10.88;7.30;;;;;;;;;;10065001;28;20040;-68
2023/10/02 15:35:05;;;;;;;15.75;6.53;;;;;;;;;;10056753;28;20045;-68
2023/10/02 15:39:57;;;;;;;18.70;7.38;;;;;;;;;;10058261;28;20577;-70
2023/10/02 15:44:48;;;;;;;14.15;7.00;;;;;;;;;;10060574;28;20104;-69
2023/10/02 15:49:40;;;;;;;9.27;5.72;;;;;;;;;;10060378;28;20076;-70
2023/10/02 15:54:32;;;;;;;12.15;6.25;;;;;;;;;;10057964;28;20049;-70
2023/10/02 15:59:24;;;;;;;11.68;6.20;;;;;;;;;;10061750;28;20050;-69
2023/10/02 16:04:16;;;;;;;10.63;8.68;;;;;;;;;;10056472;28;20046;-69
2023/10/02 16:09:08;;;;;;;14.60;7.10;;;;;;;;;;10062064;28;20048;-71
2023/10/02 16:14:00;;;;;;;6.55;5.95;;;;;;;;;;10061390;28;20874;-71
2023/10/02 16:18:52;;;;;;;13.50;6.57;;;;;;;;;;10062312;28;20052;-69
2023/10/02 16:23:45;;;;;;;10.23;6.63;;;;;;;;;;10069562;28;20124;-70
2023/10/02 16:28:37;;;;;;;12.13;7.05;;;;;;;;;;10070349;28;20049;-70
2023/10/02 16:33:29;;;;;;;9.57;6.68;;;;;;;;;;10068861;28;20057;-71
2023/10/02 16:38:22;;;;;;;12.35;7.57;;;;;;;;;;10069169;28;20037;-67
2023/10/02 16:43:15;;;;;;;10.77;7.43;;;;;;;;;;10068632;28;20132;-71
2023/10/02 16:48:07;;;;;;;10.07;8.18;;;;;;;;;;10068543;28;20113;-71
2023/10/02 16:52:59;;;;;;;14.60;6.88;;;;;;;;;;10068572;28;20046;-70
2023/10/02 16:57:51;;;;;;;11.93;6.85;;;;;;;;;;10067684;28;20042;-69
2023/10/02 17:02:43;;;;;;;12.05;7.07;;;;;;;;;;10068844;28;20133;-70
2023/10/02 17:07:40;;;;;;;11.30;6.82;;;;;;;;;;10069414;28;20053;-70
2023/10/02 17:12:32;;;;;;;14.13;7.53;;;;;;;;;;10067583;28;20543;-70
2023/10/02 17:17:24;;;;;;;9.45;7.57;;;;;;;;;;10068078;28;20046;-67
2023/10/02 17:22:16;;;;;;;11.38;7.05;;;;;;;;;;10068736;28;20061;-66
2023/10/02 17:27:08;;;;;;;19.77;7.90;;;;;;;;;;10067498;28;20455;-67
2023/10/02 17:32:00;;;;;;;13.85;7.65;;;;;;;;;;10067562;28;20037;-67
2023/10/02 17:36:56;;;;;;;13.82;8.38;;;;;;;;;;10067309;28;20045;-67
2023/10/02 17:41:48;;;;;;;17.15;14.35;;;;;;;;;;10068188;28;20034;-65
2023/10/02 17:46:40;;;;;;;14.65;9.50;;;;;;;;;;10066502;28;20796;-67
2023/10/02 17:51:36;;;;;;;16.60;11.52;;;;;;;;;;10067454;28;20073;-66
2023/10/02 17:56:29;;;;;;;10.70;8.52;;;;;;;;;;10067571;28;20038;-67
2023/10/02 18:01:22;;;;;;;8.50;6.55;;;;;;;;;;10067252;28;20045;-68
2023/10/02 18:06:15;;;;;;;8.65;6.70;;;;;;;;;;10066752;28;20041;-68
2023/10/02 18:11:07;;;;;;;9.57;7.40;;;;;;;;;;10066443;28;20525;-68
2023/10/02 18:15:58;;;;;;;10.63;7.53;;;;;;;;;;10065400;28;20046;-68
2023/10/02 18:20:50;;;;;;;9.75;6.82;;;;;;;;;;10065387;28;20045;-67
2023/10/02 18:25:53;;;;;;;8.30;7.03;;;;;;;;;;10066074;28;20367;-68
2023/10/02 18:30:46;;;;;;;9.05;6.25;;;;;;;;;;10065115;28;20107;-67
2023/10/02 18:35:38;;;;;;;8.68;6.50;;;;;;;;;;10065798;28;20072;-66
2023/10/02 18:40:30;;;;;;;15.35;6.85;;;;;;;;;;10061553;28;20060;-66
2023/10/02 18:45:22;;;;;;;9.95;6.75;;;;;;;;;;10056670;28;20398;-68
2023/10/02 18:50:14;;;;;;;7.53;6.78;;;;;;;;;;10064847;28;20037;-68
2023/10/02 18:55:07;;;;;;;18.67;7.15;;;;;;;;;;10066409;28;20140;-67
2023/10/02 18:59:59;;;;;;;7.82;6.05;;;;;;;;;;10058425;28;20678;-67
2023/10/02 19:04:51;;;;;;;7.57;6.88;;;;;;;;;;10056662;28;20053;-67
2023/10/02 19:09:44;;;;;;;11.73;6.20;;;;;;;;;;10053739;28;20327;-68
2023/10/02 19:14:36;;;;;;;10.65;7.00;;;;;;;;;;10057175;28;20049;-67
2023/10/02 19:19:28;;;;;;;9.55;6.38;;;;;;;;;;10050640;28;20072;-66
2023/10/02 19:24:20;;;;;;;8.68;6.38;;;;;;;;;;10059346;28;20052;-66
2023/10/02 19:29:16;;;;;;;9.63;7.00;;;;;;;;;;10053115;28;20941;-68
2023/10/02 19:34:08;;;;;;;13.73;7.10;;;;;;;;;;10054592;28;20116;-68
2023/10/02 19:39:02;;;;;;;10.13;7.05;;;;;;;;;;10059065;28;20049;-67
2023/10/02 19:43:54;;;;;;;8.20;6.72;;;;;;;;;;10058720;28;20510;-68
2023/10/02 19:48:48;;;;;;;10.82;7.88;;;;;;;;;;10060981;28;20069;-67
2023/10/02 19:53:41;;;;;;;15.27;7.25;;;;;;;;;;10064146;28;20345;-68
2023/10/02 19:58:33;;;;;;;14.30;7.40;;;;;;;;;;10051743;28;20049;-68
2023/10/02 20:03:27;;;;;;;14.60;9.18;;;;;;;;;;10050941;28;20439;-68
2023/10/02 20:08:20;;;;;;;11.50;7.45;;;;;;;;;;10051898;28;20447;-68
2023/10/02 20:13:13;;;;;;;11.93;8.55;;;;;;;;;;10057345;28;20074;-68
2023/10/02 20:18:06;;;;;;;8.77;7.97;;;;;;;;;;10061991;28;20471;-68
2023/10/02 20:22:58;;;;;;;10.52;9.07;;;;;;;;;;10048932;28;20065;-68
2023/10/02 20:27:50;;;;;;;13.95;8.25;;;;;;;;;;10061979;28;20084;-67
2023/10/02 20:32:42;;;;;;;10.00;7.78;;;;;;;;;;10070471;28;20052;-68
2023/10/02 20:37:37;;;;;;;11.50;8.98;;;;;;;;;;10064194;28;20041;-68
2023/10/02 20:42:29;;;;;;;9.68;8.65;;;;;;;;;;10064829;28;20526;-68
2023/10/02 20:47:21;;;;;;;12.85;8.85;;;;;;;;;;10064793;28;20471;-68
2023/10/02 20:52:15;;;;;;;9.85;8.95;;;;;;;;;;10063218;28;20044;-69
2023/10/02 20:57:06;;;;;;;9.13;7.57;;;;;;;;;;10064649;28;20116;-68
2023/10/02 21:01:58;;;;;;;14.02;8.93;;;;;;;;;;10064284;28;20085;-67
2023/10/02 21:06:51;;;;;;;16.65;9.20;;;;;;;;;;10067126;28;20044;-67
2023/10/02 21:11:44;;;;;;;9.27;8.23;;;;;;;;;;10071612;28;20037;-67
2023/10/02 21:16:37;;;;;;;9.82;8.82;;;;;;;;;;10071915;28;20037;-67
2023/10/02 21:21:29;;;;;;;11.85;8.80;;;;;;;;;;10071779;28;20041;-66
2023/10/02 21:26:20;;;;;;;11.63;8.35;;;;;;;;;;10071140;28;20080;-66
2023/10/02 21:31:12;;;;;;;20.52;10.25;;;;;;;;;;10071567;28;20397;-67
2023/10/02 21:36:06;;;;;;;10.90;9.00;;;;;;;;;;10067229;28;20038;-68
2023/10/02 21:41:14;;;;;;;11.25;8.73;;;;;;;;;;10066767;28;20068;-68
2023/10/02 21:46:09;;;;;;;10.87;9.37;;;;;;;;;;10055446;28;20073;-69
2023/10/02 21:51:04;;;;;;;12.77;8.23;;;;;;;;;;10067105;28;20041;-68
2023/10/02 21:55:55;;;;;;;12.80;9.25;;;;;;;;;;10067059;28;20091;-67
2023/10/02 22:00:48;;;;;;;8.95;8.13;;;;;;;;;;10066686;28;20080;-68
2023/10/02 22:05:47;;;;;;;14.23;9.43;;;;;;;;;;10070014;28;20037;-68
2023/10/02 22:10:42;;;;;;;10.60;8.07;;;;;;;;;;10069595;28;20053;-68
2023/10/02 22:15:34;;;;;;;10.80;8.48;;;;;;;;;;10070369;28;20041;-68
2023/10/02 22:20:26;;;;;;;12.55;8.65;;;;;;;;;;10069493;28;20041;-68
2023/10/02 22:25:18;;;;;;;12.70;8.98;;;;;;;;;;10069841;28;20463;-67
2023/10/02 22:30:13;;;;;;;9.35;8.30;;;;;;;;;;10069956;28;20056;-68
2023/10/02 22:35:07;;;;;;;12.52;8.80;;;;;;;;;;10068937;28;20038;-69
2023/10/02 22:40:02;;;;;;;11.63;8.27;;;;;;;;;;10069604;28;20042;-68
2023/10/02 22:44:55;;;;;;;9.45;8.55;;;;;;;;;;10067954;28;20111;-67
2023/10/02 22:49:49;;;;;;;10.35;8.18;;;;;;;;;;10068646;28;20049;-68
2023/10/02 22:54:44;;;;;;;10.25;8.32;;;;;;;;;;10068794;28;20072;-67
2023/10/02 22:59:39;;;;;;;12.35;8.98;;;;;;;;;;10068600;28;20451;-67
2023/10/02 23:04:31;;;;;;;16.17;9.68;;;;;;;;;;10067692;28;20121;-68
2023/10/02 23:09:24;;;;;;;17.48;10.68;;;;;;;;;;10068059;28;20514;-68
2023/10/02 23:14:16;;;;;;;11.00;9.00;;;;;;;;;;10067584;28;20042;-67
2023/10/02 23:19:10;;;;;;;11.13;9.80;;;;;;;;;;10067515;28;20049;-67
2023/10/02 23:24:04;;;;;;;12.68;9.55;;;;;;;;;;10067335;28;20467;-68
2023/10/02 23:28:57;;;;;;;16.42;9.05;;;;;;;;;;10066372;28;20050;-66
2023/10/02 23:33:50;;;;;;;11.55;9.23;;;;;;;;;;10066906;28;20040;-68
2023/10/02 23:38:42;;;;;;;14.38;9.88;;;;;;;;;;10066696;28;20171;-68
2023/10/02 23:43:35;;;;;;;13.05;9.13;;;;;;;;;;10066351;28;20286;-68
2023/10/02 23:48:29;;;;;;;14.20;9.70;;;;;;;;;;10066326;28;20129;-67
2023/10/02 23:53:25;;;;;;;10.07;8.75;;;;;;;;;;10065935;28;20046;-67
2023/10/02 23:58:18;;;;;;;10.20;9.18;;;;;;;;;;10066583;28;20103;-67
